Time;durP1;ratioP1;P1;durP2;ratioP2;P2;SDS_P1;SDS_P2;PMS_P1;PMS_P2;Temp;Humidity;BMP_temperature;BMP_pressure;BME280_temperature;BME280_humidity;BME280_pressure;Samples;Min_cycle;Max_cycle;Signal;HPM_P1;HPM_P2
2021/12/13 00:02:31;;;;;;;60.70;37.43;;;10.80;99.90;;;;;;5010808;28;20018;-72
2021/12/13 00:05:11;;;;;;;54.33;34.83;;;10.80;99.90;;;;;;5011462;28;20490;-72
2021/12/13 00:07:40;;;;;;;65.50;39.07;;;10.70;99.90;;;;;;5012768;28;20017;-72
2021/12/13 00:10:41;;;;;;;59.17;36.30;;;10.80;99.90;;;;;;5012240;28;20045;-72
2021/12/13 00:13:15;;;;;;;57.70;35.50;;;11.80;99.90;;;;;;5012731;28;20057;-72
2021/12/13 00:16:03;;;;;;;59.27;36.10;;;10.80;99.90;;;;;;5013302;28;20046;-72
2021/12/13 00:18:35;;;;;;;56.53;34.67;;;10.80;99.90;;;;;;5013135;28;20033;-72
2021/12/13 00:21:13;;;;;;;60.77;34.80;;;10.80;99.90;;;;;;5012544;28;20030;-72
2021/12/13 00:23:47;;;;;;;48.90;33.17;;;10.80;99.90;;;;;;5008039;28;20015;-72
2021/12/13 00:26:21;;;;;;;52.55;34.60;;;10.70;99.90;;;;;;5008364;28;20502;-72
2021/12/13 00:28:47;;;;;;;52.27;33.37;;;10.70;99.90;;;;;;4994420;28;20100;-71
2021/12/13 00:31:42;;;;;;;58.17;36.67;;;10.80;99.90;;;;;;4993049;28;20123;-72
2021/12/13 00:34:38;;;;;;;52.63;33.27;;;10.70;99.90;;;;;;4993123;28;20128;-72
2021/12/13 00:37:17;;;;;;;49.77;32.50;;;10.60;99.90;;;;;;4992593;28;20026;-71
2021/12/13 00:40:12;;;;;;;59.53;33.77;;;10.60;99.90;;;;;;4993282;28;20050;-71
2021/12/13 00:42:42;;;;;;;54.40;33.70;;;11.20;99.90;;;;;;4993321;28;20030;-72
2021/12/13 00:45:11;;;;;;;59.23;33.73;;;10.60;99.90;;;;;;5007553;28;20034;-72
2021/12/13 00:47:38;;;;;;;49.93;29.93;;;10.70;99.90;;;;;;5012784;28;20049;-72
2021/12/13 00:50:15;;;;;;;48.53;30.73;;;10.90;99.90;;;;;;5011784;28;20486;-72
2021/12/13 00:52:43;;;;;;;46.57;30.57;;;10.60;99.90;;;;;;5012706;28;20045;-72
2021/12/13 00:55:19;;;;;;;48.30;30.73;;;10.60;99.90;;;;;;5012363;28;20033;-72
2021/12/13 00:57:47;;;;;;;53.47;33.53;;;10.80;99.90;;;;;;5005847;28;20050;-72
2021/12/13 01:00:22;;;;;;;51.40;32.93;;;10.90;99.90;;;;;;4992567;28;20070;-72
2021/12/13 01:03:13;;;;;;;47.40;29.87;;;10.70;99.90;;;;;;4992867;28;20050;-72
2021/12/13 01:06:28;;;;;;;42.47;28.27;;;10.60;99.90;;;;;;4991944;28;20429;-72
2021/12/13 01:09:12;;;;;;;;;;;10.70;99.90;;;;;;4997523;28;20080;-72
2021/12/13 01:11:44;;;;;;;50.13;30.30;;;10.50;99.90;;;;;;4992576;28;19918;-72
2021/12/13 01:14:28;;;;;;;48.90;29.17;;;10.70;99.90;;;;;;4992359;28;20471;-72
2021/12/13 01:17:03;;;;;;;43.03;29.95;;;10.60;99.90;;;;;;4992271;28;20018;-72
2021/12/13 01:19:50;;;;;;;50.20;31.00;;;10.60;99.90;;;;;;4992216;28;20038;-72
2021/12/13 01:28:29;;;;;;;51.00;33.77;;;10.50;99.90;;;;;;5011816;28;20022;-72
2021/12/13 01:31:03;;;;;;;50.63;34.63;;;10.40;99.90;;;;;;5011600;28;20050;-72
2021/12/13 01:33:31;;;;;;;59.60;36.17;;;10.40;99.90;;;;;;5012256;28;20054;-72
2021/12/13 01:36:01;;;;;;;59.90;37.83;;;10.50;99.90;;;;;;5011561;28;20026;-72
2021/12/13 01:38:35;;;;;;;61.20;38.70;;;10.50;99.90;;;;;;5011802;28;20025;-72
2021/12/13 01:41:12;;;;;;;55.37;35.33;;;10.40;99.90;;;;;;5011421;28;20030;-72
2021/12/13 01:44:00;;;;;;;55.07;34.23;;;10.40;99.90;;;;;;5010995;28;20014;-72
2021/12/13 01:46:26;;;;;;;51.63;34.67;;;10.50;99.90;;;;;;5011360;28;20554;-72
2021/12/13 01:48:53;;;;;;;57.60;37.40;;;10.30;99.90;;;;;;5010993;28;20118;-72
2021/12/13 01:51:24;;;;;;;59.67;38.23;;;10.40;99.90;;;;;;5011483;28;20026;-71
2021/12/13 01:53:52;;;;;;;63.50;38.17;;;10.30;99.90;;;;;;5011350;28;20037;-72
2021/12/13 01:56:47;;;;;;;51.57;35.47;;;10.50;99.90;;;;;;5010050;28;20026;-72
2021/12/13 02:02:34;;;;;;;53.03;34.13;;;10.50;99.90;;;;;;4968268;28;20038;-72
2021/12/13 02:05:06;;;;;;;46.20;30.97;;;10.30;99.90;;;;;;5006373;28;20026;-72
2021/12/13 02:07:46;;;;;;;51.50;32.43;;;10.30;99.90;;;;;;5011441;28;20125;-72
2021/12/13 02:10:27;;;;;;;56.33;35.73;;;10.40;99.90;;;;;;5010991;28;20034;-72
2021/12/13 02:12:58;;;;;;;56.40;38.70;;;10.10;99.90;;;;;;5010631;28;20074;-72
2021/12/13 02:18:13;;;;;;;64.03;38.00;;;10.20;99.90;;;;;;5010262;28;20044;-72
2021/12/13 02:20:42;;;;;;;69.67;43.50;;;10.40;99.90;;;;;;5011081;28;20496;-72
2021/12/13 02:23:08;;;;;;;62.53;41.27;;;10.40;99.90;;;;;;5010534;28;20080;-72
2021/12/13 02:25:44;;;;;;;64.53;40.40;;;10.40;99.90;;;;;;5010999;28;20038;-72
2021/12/13 02:28:20;;;;;;;67.63;43.30;;;10.20;99.90;;;;;;5010630;28;20501;-72
2021/12/13 02:30:56;;;;;;;73.17;45.63;;;10.50;99.90;;;;;;4994276;28;20038;-72
2021/12/13 02:33:27;;;;;;;67.07;42.93;;;10.30;99.90;;;;;;4990728;28;20034;-72
2021/12/13 02:35:57;;;;;;;72.40;45.73;;;10.30;99.90;;;;;;4990840;28;20031;-72
2021/12/13 02:38:23;;;;;;;65.63;42.90;;;10.50;99.90;;;;;;4991049;28;20026;-72
2021/12/13 02:40:51;;;;;;;66.20;43.80;;;10.30;99.90;;;;;;4991086;28;20394;-72
2021/12/13 02:43:22;;;;;;;65.03;42.00;;;10.30;99.90;;;;;;4991077;28;20025;-72
2021/12/13 02:45:52;;;;;;;67.20;44.17;;;10.30;99.90;;;;;;4991238;28;20133;-72
2021/12/13 02:48:27;;;;;;;67.50;44.17;;;10.30;99.90;;;;;;4990436;28;20104;-72
2021/12/13 02:51:03;;;;;;;64.57;42.57;;;10.30;99.90;;;;;;5005746;28;20034;-72
2021/12/13 02:53:42;;;;;;;64.13;42.40;;;10.50;99.90;;;;;;5010504;28;20052;-72
2021/12/13 02:56:09;;;;;;;63.37;39.83;;;10.20;99.90;;;;;;5023497;28;20054;-72
2021/12/13 02:58:36;;;;;;;64.67;40.13;;;10.30;99.90;;;;;;5008050;28;20640;-72
2021/12/13 03:01:09;;;;;;;56.83;39.80;;;10.40;99.90;;;;;;5007907;28;20030;-72
2021/12/13 03:03:41;;;;;;;53.70;37.83;;;10.30;99.90;;;;;;5008642;28;20036;-72
2021/12/13 03:06:18;;;;;;;52.13;36.13;;;10.10;99.90;;;;;;5007097;28;20029;-72
2021/12/13 03:08:51;;;;;;;50.93;36.07;;;10.30;99.90;;;;;;5008657;28;20018;-72
2021/12/13 03:11:27;;;;;;;62.93;36.93;;;10.40;99.90;;;;;;5024089;28;20103;-72
2021/12/13 03:13:57;;;;;;;55.00;37.30;;;10.30;99.90;;;;;;5010139;28;20022;-72
2021/12/13 03:16:28;;;;;;;49.83;33.97;;;10.30;99.90;;;;;;4990561;28;20037;-72
2021/12/13 03:19:06;;;;;;;48.27;33.07;;;10.30;99.90;;;;;;4990516;28;20026;-72
2021/12/13 03:22:02;;;;;;;43.63;32.10;;;10.10;99.90;;;;;;4989940;28;20077;-72
2021/12/13 03:24:33;;;;;;;41.47;30.50;;;10.20;99.90;;;;;;4990626;28;20537;-72
2021/12/13 03:27:12;;;;;;;45.30;31.43;;;10.10;99.90;;;;;;4991916;28;20030;-72
2021/12/13 03:30:09;;;;;;;42.73;29.90;;;10.00;99.90;;;;;;5009536;28;20033;-72
2021/12/13 03:32:44;;;;;;;43.33;29.63;;;10.50;99.90;;;;;;5010728;28;20125;-72
2021/12/13 03:35:10;;;;;;;39.00;28.10;;;;;;;;;;5012089;28;20026;-72
2021/12/13 03:37:37;;;;;;;45.57;29.53;;;;;;;;;;5013219;28;20124;-71
2021/12/13 03:40:15;;;;;;;36.30;29.03;;;10.10;99.90;;;;;;5013086;28;20084;-72
2021/12/13 03:42:46;;;;;;;41.03;28.37;;;10.10;99.90;;;;;;5013029;28;20029;-72
2021/12/13 03:45:49;;;;;;;40.37;28.50;;;10.10;99.90;;;;;;5012105;28;20379;-72
2021/12/13 03:48:26;;;;;;;36.50;28.00;;;10.20;99.90;;;;;;5012619;28;20109;-72
2021/12/13 03:50:55;;;;;;;39.73;26.87;;;10.20;99.90;;;;;;5013415;28;20084;-72
2021/12/13 03:53:26;;;;;;;36.20;27.43;;;10.10;99.90;;;;;;5013691;28;20085;-72
2021/12/13 03:55:56;;;;;;;38.10;27.73;;;10.20;99.90;;;;;;5012867;28;20049;-72
2021/12/13 03:58:24;;;;;;;38.70;27.23;;;10.10;99.90;;;;;;5002464;28;20030;-72
2021/12/13 04:01:07;;;;;;;35.53;24.30;;;10.20;99.90;;;;;;5028084;28;20026;-72
2021/12/13 04:03:34;;;;;;;36.00;25.10;;;10.00;99.90;;;;;;4997124;28;20106;-72
2021/12/13 04:06:00;;;;;;;37.17;25.97;;;10.20;99.90;;;;;;4993588;28;20026;-72
2021/12/13 04:08:27;;;;;;;38.33;26.10;;;;;;;;;;4993972;28;20028;-72
2021/12/13 04:11:00;;;;;;;35.93;25.03;;;10.10;99.90;;;;;;4993293;28;20411;-72
2021/12/13 04:13:31;;;;;;;34.60;25.50;;;10.10;99.90;;;;;;4993571;28;20630;-72
2021/12/13 04:16:14;;;;;;;37.73;26.33;;;10.10;99.90;;;;;;5010667;28;20030;-72
2021/12/13 04:19:06;;;;;;;35.60;25.60;;;;;;;;;;5011315;28;20161;-72
2021/12/13 04:21:40;;;;;;;43.37;27.87;;;10.00;99.90;;;;;;5000994;28;20273;-72
2021/12/13 04:24:11;;;;;;;39.93;29.33;;;10.20;99.90;;;;;;4993270;28;20084;-72
2021/12/13 04:26:53;;;;;;;44.13;29.50;;;10.10;99.90;;;;;;4992333;28;20033;-72
2021/12/13 04:29:26;;;;;;;44.63;27.90;;;10.20;99.90;;;;;;4991809;28;20030;-72
2021/12/13 04:31:54;;;;;;;44.22;27.27;;;10.00;99.90;;;;;;5009323;28;20538;-72
2021/12/13 04:34:25;;;;;;;44.47;28.17;;;10.10;99.90;;;;;;4993184;28;20483;-73
2021/12/13 04:36:54;;;;;;;43.27;28.37;;;9.80;99.90;;;;;;4993000;28;20121;-72
2021/12/13 04:39:31;;;;;;;50.30;29.93;;;9.90;99.90;;;;;;4992181;28;20030;-72
2021/12/13 04:42:07;;;;;;;46.73;30.27;;;10.10;99.90;;;;;;4993018;28;20164;-72
2021/12/13 04:45:06;;;;;;;45.40;29.53;;;10.10;99.90;;;;;;5003777;28;20021;-72
2021/12/13 04:47:47;;;;;;;42.40;27.27;;;10.10;99.90;;;;;;5012830;28;20038;-72
2021/12/13 04:50:19;;;;;;;47.10;29.13;;;10.20;99.90;;;;;;5012360;28;20418;-72
2021/12/13 04:52:46;;;;;;;36.80;24.77;;;9.90;99.90;;;;;;5012666;28;20060;-72
2021/12/13 04:55:26;;;;;;;40.93;27.07;;;9.90;99.90;;;;;;5012146;28;20056;-72
2021/12/13 04:57:55;;;;;;;47.77;28.07;;;10.00;99.90;;;;;;5011787;28;20030;-72
2021/12/13 05:00:23;;;;;;;51.57;28.00;;;10.10;99.90;;;;;;5010712;28;20491;-72
2021/12/13 05:02:53;;;;;;;47.07;27.70;;;9.90;99.90;;;;;;4992938;28;20030;-72
2021/12/13 05:05:19;;;;;;;47.80;30.37;;;9.90;99.90;;;;;;4992783;28;20149;-72
2021/12/13 05:07:49;;;;;;;49.20;29.80;;;9.90;99.90;;;;;;4992665;28;20062;-72
2021/12/13 05:10:15;;;;;;;48.57;31.37;;;9.90;99.90;;;;;;4992492;28;20385;-72
2021/12/13 05:12:56;;;;;;;52.33;31.33;;;9.90;99.90;;;;;;4990644;28;20054;-72
2021/12/13 05:15:26;;;;;;;50.80;30.53;;;9.90;99.90;;;;;;4992489;28;20027;-73
2021/12/13 05:17:53;;;;;;;53.13;31.27;;;9.90;99.90;;;;;;4992276;28;20037;-73
2021/12/13 05:20:24;;;;;;;52.67;31.60;;;9.80;99.90;;;;;;4992322;28;20157;-72
2021/12/13 05:22:56;;;;;;;48.70;29.90;;;9.90;99.90;;;;;;4992270;28;20035;-72
2021/12/13 05:25:35;;;;;;;54.83;32.87;;;10.00;99.90;;;;;;4992385;28;20176;-73
2021/12/13 05:28:09;;;;;;;58.53;33.77;;;10.30;99.90;;;;;;5006901;28;20494;-72
2021/12/13 05:30:41;;;;;;;54.92;31.75;;;9.80;99.90;;;;;;4992632;28;20149;-72
2021/12/13 05:33:09;;;;;;;50.27;31.20;;;9.80;99.90;;;;;;4991798;28;20034;-73
2021/12/13 05:35:39;;;;;;;51.13;31.30;;;9.80;99.90;;;;;;4992255;28;20021;-73
2021/12/13 05:38:11;;;;;;;51.90;32.43;;;9.90;99.90;;;;;;4991812;28;20030;-72
2021/12/13 05:40:45;;;;;;;53.73;31.47;;;9.60;99.90;;;;;;4991612;28;20439;-72
2021/12/13 05:43:34;;;;;;;49.87;28.37;;;10.10;99.90;;;;;;5008712;28;20038;-72
2021/12/13 05:46:09;;;;;;;48.60;29.23;;;9.90;99.90;;;;;;5011438;28;20026;-72
2021/12/13 05:48:35;;;;;;;54.67;33.33;;;9.80;99.90;;;;;;5011686;28;20037;-72
2021/12/13 05:51:05;;;;;;;52.90;29.13;;;9.80;99.90;;;;;;5010827;28;20988;-72
2021/12/13 05:53:35;;;;;;;52.97;31.20;;;9.80;99.90;;;;;;5011497;28;20018;-72
2021/12/13 05:56:09;;;;;;;51.70;30.17;;;9.90;99.90;;;;;;5010162;28;20088;-72
2021/12/13 05:58:53;;;;;;;52.47;30.77;;;10.00;99.90;;;;;;5010028;28;20029;-72
2021/12/13 06:01:40;;;;;;;52.50;30.07;;;9.90;99.90;;;;;;5004685;28;20030;-72
2021/12/13 06:04:06;;;;;;;50.77;29.30;;;;;;;;;;5010578;28;20030;-72
2021/12/13 06:06:53;;;;;;;54.03;31.17;;;9.90;99.90;;;;;;5009770;28;20026;-72
2021/12/13 06:09:40;;;;;;;47.33;27.77;;;9.80;99.90;;;;;;5009977;28;20593;-72
2021/12/13 06:12:10;;;;;;;46.47;27.53;;;9.70;99.90;;;;;;5004662;28;20042;-72
2021/12/13 06:14:36;;;;;;;48.93;29.13;;;;;;;;;;4990346;28;20038;-73
2021/12/13 06:17:03;;;;;;;43.80;28.47;;;;;;;;;;4993445;28;20030;-73
2021/12/13 06:19:28;;;;;;;48.63;28.20;;;9.70;99.90;;;;;;5010555;28;20041;-72
2021/12/13 06:22:00;;;;;;;40.77;26.07;;;9.70;99.90;;;;;;5010368;28;20102;-72
2021/12/13 06:24:30;;;;;;;45.43;27.17;;;9.70;99.90;;;;;;5005422;28;20045;-72
2021/12/13 06:27:26;;;;;;;45.87;29.20;;;9.30;99.90;;;;;;5010107;28;20107;-72
2021/12/13 06:30:05;;;;;;;40.10;23.90;;;9.80;99.90;;;;;;5009037;28;20410;-72
2021/12/13 06:32:50;;;;;;;43.10;27.67;;;9.90;99.90;;;;;;5010791;28;20056;-72
2021/12/13 06:35:36;;;;;;;41.03;24.50;;;9.60;99.90;;;;;;5010738;28;20032;-72
2021/12/13 06:38:20;;;;;;;41.77;25.47;;;9.70;99.90;;;;;;5009859;28;20034;-73
2021/12/13 06:41:04;;;;;;;39.88;24.42;;;9.70;99.90;;;;;;4991060;28;20400;-73
2021/12/13 06:43:30;;;;;;;49.40;26.98;;;;;;;;;;4989718;28;20080;-73
2021/12/13 06:45:58;;;;;;;38.00;25.30;;;9.70;99.90;;;;;;5005725;28;20031;-73
2021/12/13 06:48:46;;;;;;;40.93;25.87;;;9.70;99.90;;;;;;4990980;28;20054;-73
2021/12/13 06:51:15;;;;;;;40.03;24.17;;;9.70;99.90;;;;;;4989791;28;20030;-73
2021/12/13 06:53:57;;;;;;;43.73;25.50;;;9.80;99.90;;;;;;4990056;28;20034;-73
2021/12/13 06:56:26;;;;;;;45.47;27.40;;;9.70;99.90;;;;;;5005095;28;20042;-73
2021/12/13 06:58:55;;;;;;;40.70;25.13;;;9.70;99.90;;;;;;4989683;28;20117;-73
2021/12/13 07:01:21;;;;;;;38.80;26.40;;;9.80;99.90;;;;;;4989917;28;20026;-75
2021/12/13 07:04:02;;;;;;;38.73;23.87;;;10.10;99.90;;;;;;4989665;28;20030;-75
2021/12/13 07:06:28;;;;;;;35.70;22.60;;;9.80;99.90;;;;;;4990546;28;20030;-75
2021/12/13 07:09:17;;;;;;;40.13;25.20;;;9.80;99.90;;;;;;4995388;28;20382;-74
2021/12/13 07:12:15;;;;;;;41.07;23.40;;;9.80;99.90;;;;;;4996437;28;20447;-74
2021/12/13 07:14:42;;;;;;;41.37;25.87;;;9.70;99.90;;;;;;4990617;28;20030;-74
2021/12/13 07:17:34;;;;;;;43.20;24.07;;;9.70;99.90;;;;;;4990171;28;20851;-73
2021/12/13 07:20:11;;;;;;;39.97;24.90;;;9.70;99.90;;;;;;4990343;28;20031;-74
2021/12/13 07:22:37;;;;;;;47.97;26.27;;;9.90;99.90;;;;;;4995537;28;20017;-74
2021/12/13 07:25:15;;;;;;;41.10;24.90;;;9.60;99.90;;;;;;5007675;28;20034;-74
2021/12/13 07:27:47;;;;;;;41.77;24.10;;;9.60;99.90;;;;;;5008960;28;20442;-74
2021/12/13 07:30:17;;;;;;;37.00;23.80;;;9.60;99.90;;;;;;5009965;28;20378;-74
2021/12/13 07:32:53;;;;;;;37.33;24.47;;;9.70;99.90;;;;;;5003397;28;20080;-74
2021/12/13 07:35:29;;;;;;;38.07;23.20;;;9.60;99.90;;;;;;4990646;28;20030;-75
2021/12/13 07:37:56;;;;;;;37.90;23.47;;;9.70;99.90;;;;;;4989822;28;20030;-74
2021/12/13 07:40:22;;;;;;;39.00;24.90;;;9.70;99.90;;;;;;4990760;28;20038;-74
2021/12/13 07:43:11;;;;;;;36.10;23.23;;;9.60;99.90;;;;;;4990658;28;20109;-74
2021/12/13 07:45:54;;;;;;;38.40;25.83;;;9.70;99.90;;;;;;4990545;28;20069;-74
2021/12/13 07:48:34;;;;;;;33.53;22.13;;;9.60;99.90;;;;;;4990325;28;20113;-74
2021/12/13 07:51:27;;;;;;;39.90;23.87;;;9.70;99.90;;;;;;4989636;28;20026;-74
2021/12/13 07:53:59;;;;;;;35.33;21.87;;;9.70;99.90;;;;;;4990137;28;20467;-74
2021/12/13 07:56:39;;;;;;;36.53;22.47;;;9.60;99.90;;;;;;5000552;28;20157;-74
2021/12/13 07:59:16;;;;;;;36.80;21.50;;;9.60;99.90;;;;;;5001330;28;20061;-74
2021/12/13 08:02:16;;;;;;;36.87;23.07;;;9.60;99.90;;;;;;4990254;28;20034;-74
2021/12/13 08:04:47;;;;;;;39.93;23.53;;;9.60;99.90;;;;;;4985483;28;20038;-74
2021/12/13 08:07:32;;;;;;;33.10;20.90;;;9.60;99.90;;;;;;4996510;28;20383;-74
2021/12/13 08:10:02;;;;;;;37.93;22.47;;;9.60;99.90;;;;;;4990094;28;20026;-73
2021/12/13 08:12:29;;;;;;;38.50;22.43;;;9.60;99.90;;;;;;4999793;28;20034;-74
2021/12/13 08:15:14;;;;;;;39.20;22.30;;;9.80;99.90;;;;;;5010291;28;20123;-74
2021/12/13 08:17:49;;;;;;;38.67;23.63;;;9.50;99.90;;;;;;5010874;28;20116;-74
2021/12/13 08:20:25;;;;;;;31.67;21.73;;;9.80;99.90;;;;;;5012775;28;20049;-73
2021/12/13 08:22:54;;;;;;;30.33;20.60;;;9.30;99.90;;;;;;5012693;28;20518;-74
2021/12/13 08:25:26;;;;;;;30.87;21.00;;;9.60;99.90;;;;;;5012960;28;20371;-74
2021/12/13 08:28:11;;;;;;;31.07;19.57;;;9.70;99.90;;;;;;5011352;28;20486;-74
2021/12/13 08:30:54;;;;;;;33.83;21.60;;;9.70;99.90;;;;;;5005423;28;20104;-74
2021/12/13 08:33:39;;;;;;;31.53;19.00;;;9.60;99.90;;;;;;5012862;28;20061;-74
2021/12/13 08:36:23;;;;;;;32.07;20.87;;;9.70;99.90;;;;;;5011995;28;20139;-73
2021/12/13 08:39:00;;;;;;;32.23;20.60;;;9.70;99.90;;;;;;5012563;28;20038;-74
2021/12/13 08:41:40;;;;;;;31.10;20.07;;;9.90;99.90;;;;;;5012034;28;20034;-74
2021/12/13 08:44:12;;;;;;;36.90;21.33;;;9.90;99.90;;;;;;5012436;28;20124;-74
2021/12/13 08:46:56;;;;;;;28.73;20.40;;;9.90;99.90;;;;;;5011623;28;20036;-74
2021/12/13 08:49:33;;;;;;;33.03;20.75;;;9.80;99.90;;;;;;5009700;28;20056;-74
2021/12/13 08:52:03;;;;;;;27.73;18.87;;;9.60;99.90;;;;;;5009185;28;20514;-73
2021/12/13 08:54:41;;;;;;;29.20;19.70;;;10.00;99.90;;;;;;5011304;28;20475;-73
2021/12/13 08:57:27;;;;;;;27.10;19.30;;;11.00;99.90;;;;;;5023669;28;20030;-73
2021/12/13 08:59:55;;;;;;;27.30;18.90;;;9.90;99.90;;;;;;4992482;28;20037;-74
2021/12/13 09:02:21;;;;;;;26.47;17.50;;;9.80;99.90;;;;;;5007694;28;20022;-74
2021/12/13 09:05:07;;;;;;;31.27;20.30;;;9.90;99.90;;;;;;5002626;28;20030;-74
2021/12/13 09:07:34;;;;;;;27.33;17.27;;;9.80;99.90;;;;;;5012138;28;20025;-74
2021/12/13 09:10:00;;;;;;;28.87;17.60;;;;;;;;;;5011415;28;20101;-74
2021/12/13 09:12:43;;;;;;;29.23;19.57;;;10.00;99.90;;;;;;5012040;28;20041;-73
2021/12/13 09:15:26;;;;;;;28.42;18.17;;;9.90;99.90;;;;;;5011698;28;20026;-74
2021/12/13 09:17:53;;;;;;;26.27;18.03;;;9.90;99.90;;;;;;5010469;28;20048;-74
2021/12/13 09:20:38;;;;;;;26.13;18.53;;;9.90;99.90;;;;;;5010252;28;20491;-74
2021/12/13 09:23:15;;;;;;;22.30;16.07;;;9.90;99.90;;;;;;5011513;28;20018;-74
2021/12/13 09:25:50;;;;;;;29.73;20.03;;;9.80;99.90;;;;;;5010853;28;20022;-74
2021/12/13 09:28:27;;;;;;;29.17;19.53;;;10.00;99.90;;;;;;5011714;28;20029;-74
2021/12/13 09:31:15;;;;;;;29.73;19.90;;;10.00;99.90;;;;;;5011074;28;20034;-74
2021/12/13 09:33:45;;;;;;;26.97;19.70;;;9.90;99.90;;;;;;5008416;28;20141;-74
2021/12/13 09:36:21;;;;;;;25.30;17.07;;;10.20;99.90;;;;;;5009346;28;20060;-74
2021/12/13 09:39:07;;;;;;;23.37;16.43;;;10.00;99.90;;;;;;5024489;28;20034;-74
2021/12/13 09:41:43;;;;;;;29.43;19.83;;;10.00;99.90;;;;;;4997421;28;20061;-74
2021/12/13 09:44:08;;;;;;;26.00;17.20;;;9.90;99.90;;;;;;4997209;28;20144;-74
2021/12/13 09:46:49;;;;;;;24.80;18.17;;;9.90;99.90;;;;;;5011059;28;20419;-73
2021/12/13 09:49:39;;;;;;;21.53;15.40;;;10.10;99.90;;;;;;5011310;28;20022;-74
2021/12/13 09:52:25;;;;;;;24.07;15.97;;;10.00;99.90;;;;;;5010957;28;20037;-74
2021/12/13 09:54:55;;;;;;;26.33;18.33;;;10.10;99.90;;;;;;5010724;28;20048;-74
2021/12/13 09:57:28;;;;;;;22.17;16.30;;;9.90;99.90;;;;;;5009170;28;20501;-75
2021/12/13 09:59:55;;;;;;;21.02;15.45;;;10.10;99.90;;;;;;5003956;28;20042;-74
2021/12/13 10:02:43;;;;;;;23.07;16.43;;;10.00;99.90;;;;;;5007814;28;20526;-74
2021/12/13 10:05:12;;;;;;;23.83;17.13;;;10.80;99.90;;;;;;4996179;28;20112;-73
2021/12/13 10:07:43;;;;;;;21.60;15.70;;;10.00;99.90;;;;;;5011029;28;20029;-73
2021/12/13 10:10:14;;;;;;;25.47;17.00;;;10.10;99.90;;;;;;4991060;28;20379;-73
2021/12/13 10:12:48;;;;;;;21.03;14.20;;;10.10;99.90;;;;;;4991414;28;20042;-74
2021/12/13 10:15:19;;;;;;;20.77;15.55;;;10.00;99.90;;;;;;4990938;28;20026;-73
2021/12/13 10:17:48;;;;;;;23.63;15.97;;;10.00;99.90;;;;;;4996208;28;20113;-73
2021/12/13 10:20:29;;;;;;;24.13;16.70;;;9.90;99.90;;;;;;4999909;28;20083;-73
2021/12/13 10:22:55;;;;;;;20.23;16.13;;;10.00;99.90;;;;;;5010749;28;20141;-74
2021/12/13 10:25:26;;;;;;;19.40;14.00;;;10.00;99.90;;;;;;4995043;28;20084;-73
2021/12/13 10:27:53;;;;;;;20.93;14.57;;;10.00;99.90;;;;;;5010124;28;20080;-74
2021/12/13 10:30:36;;;;;;;19.83;14.87;;;10.00;99.90;;;;;;5009673;28;20064;-74
2021/12/13 10:33:04;;;;;;;20.42;14.50;;;10.00;99.90;;;;;;5010499;28;20116;-74
2021/12/13 10:35:34;;;;;;;22.77;15.10;;;10.10;99.90;;;;;;5010616;28;20088;-74
2021/12/13 10:38:04;;;;;;;18.90;14.03;;;10.10;99.90;;;;;;5008713;28;20014;-73
2021/12/13 10:40:35;;;;;;;18.20;14.00;;;9.90;99.90;;;;;;5010457;28;20073;-74
2021/12/13 10:43:10;;;;;;;22.00;14.30;;;10.10;99.90;;;;;;5010347;28;20371;-74
2021/12/13 10:45:41;;;;;;;20.67;14.23;;;10.30;99.90;;;;;;4991543;28;20541;-73
2021/12/13 10:48:09;;;;;;;18.50;13.10;;;10.20;99.90;;;;;;4990428;28;20061;-75
2021/12/13 10:50:49;;;;;;;20.97;13.53;;;10.10;99.90;;;;;;4990970;28;20193;-74
2021/12/13 10:53:21;;;;;;;18.70;12.00;;;10.20;99.90;;;;;;4990588;28;20383;-74
2021/12/13 10:55:56;;;;;;;16.77;11.83;;;10.10;99.90;;;;;;4990762;28;20022;-74
2021/12/13 10:58:26;;;;;;;19.00;12.97;;;10.20;99.90;;;;;;4991102;28;20491;-74
2021/12/13 11:01:11;;;;;;;18.20;13.97;;;10.20;99.90;;;;;;4999670;28;20046;-75
2021/12/13 11:03:38;;;;;;;21.13;14.80;;;10.30;99.90;;;;;;5003455;28;20478;-74
2021/12/13 11:06:05;;;;;;;17.43;12.73;;;10.20;99.90;;;;;;5009081;28;20069;-74
2021/12/13 11:08:31;;;;;;;17.60;13.57;;;10.20;99.90;;;;;;5010345;28;20064;-73
2021/12/13 11:10:57;;;;;;;16.80;13.07;;;;;;;;;;5008441;28;20039;-76
2021/12/13 11:13:27;;;;;;;18.10;12.23;;;10.30;99.90;;;;;;5002142;28;20089;-76
2021/12/13 11:15:56;;;;;;;16.33;11.47;;;10.40;99.90;;;;;;4997913;28;20030;-75
2021/12/13 11:18:28;;;;;;;16.33;12.03;;;10.30;99.90;;;;;;5009869;28;20037;-75
2021/12/13 11:20:59;;;;;;;12.63;10.40;;;10.30;99.90;;;;;;5009575;28;20034;-75
2021/12/13 11:23:25;;;;;;;17.97;13.87;;;10.20;99.90;;;;;;5007350;28;20014;-75
2021/12/13 11:25:58;;;;;;;16.33;12.50;;;10.30;99.90;;;;;;5009253;28;20560;-75
2021/12/13 11:28:26;;;;;;;16.27;12.60;;;10.60;99.90;;;;;;5009638;28;20096;-75
2021/12/13 11:30:53;;;;;;;16.60;12.67;;;10.40;99.90;;;;;;5009822;28;20057;-76
2021/12/13 11:33:41;;;;;;;14.43;12.07;;;10.40;99.90;;;;;;5009934;28;20022;-75
2021/12/13 11:36:07;;;;;;;17.07;12.00;;;10.40;99.90;;;;;;5009225;28;20022;-76
2021/12/13 11:39:05;;;;;;;13.30;10.30;;;10.20;99.90;;;;;;5010089;28;20076;-75
2021/12/13 11:41:56;;;;;;;12.60;10.70;;;10.30;99.90;;;;;;5009861;28;20034;-76
2021/12/13 11:44:59;;;;;;;14.03;10.97;;;10.30;99.90;;;;;;5009131;28;20036;-76
2021/12/13 11:47:50;;;;;;;15.90;11.40;;;9.20;99.90;;;;;;5010167;28;20025;-75
2021/12/13 11:50:19;;;;;;;16.27;11.27;;;10.30;99.90;;;;;;5012409;28;20025;-76
2021/12/13 11:53:11;;;;;;;14.37;10.53;;;10.30;99.90;;;;;;4995031;28;20034;-76
2021/12/13 11:56:14;;;;;;;15.43;11.77;;;10.10;99.90;;;;;;4996291;28;20037;-76
2021/12/13 11:58:55;;;;;;;14.10;10.63;;;10.40;99.90;;;;;;4993125;28;20037;-75
2021/12/13 12:01:21;;;;;;;15.60;12.30;;;;;;;;;;4999022;28;20050;-76
2021/12/13 12:03:58;;;;;;;14.33;10.30;;;10.20;99.90;;;;;;5024641;28;20120;-75
2021/12/13 12:06:42;;;;;;;13.67;11.77;;;10.20;99.90;;;;;;5008367;28;20120;-75
2021/12/13 12:09:22;;;;;;;15.18;10.60;;;10.10;99.90;;;;;;5008094;28;20065;-75
2021/12/13 12:12:25;;;;;;;12.10;9.77;;;10.30;99.90;;;;;;4996917;28;20144;-75
2021/12/13 12:14:59;;;;;;;13.87;9.10;;;10.50;99.90;;;;;;4993862;28;20049;-75
2021/12/13 12:17:26;;;;;;;10.55;9.05;;;10.40;99.90;;;;;;5002544;28;20382;-75
2021/12/13 12:19:52;;;;;;;14.03;9.60;;;;;;;;;;5009548;28;20065;-75
2021/12/13 12:22:19;;;;;;;10.27;9.17;;;10.40;99.90;;;;;;5012739;28;20026;-75
2021/12/13 12:24:54;;;;;;;17.10;10.17;;;10.20;99.90;;;;;;5010848;28;20457;-75
2021/12/13 12:27:29;;;;;;;12.60;10.00;;;10.50;99.90;;;;;;5012487;28;20487;-75
2021/12/13 12:30:02;;;;;;;12.23;10.00;;;10.40;99.90;;;;;;5012736;28;20083;-76
2021/12/13 12:32:34;;;;;;;12.15;9.25;;;10.60;99.90;;;;;;5012331;28;20018;-75
2021/12/13 12:35:11;;;;;;;14.17;10.33;;;10.30;99.90;;;;;;5007736;28;20121;-75
2021/12/13 12:38:02;;;;;;;11.87;9.03;;;10.70;99.90;;;;;;4993249;28;20026;-74
2021/12/13 12:40:37;;;;;;;14.57;9.93;;;10.60;99.90;;;;;;4993120;28;20484;-76
2021/12/13 12:43:19;;;;;;;18.70;9.57;;;10.70;99.90;;;;;;5011535;28;20057;-75
2021/12/13 12:45:50;;;;;;;13.37;8.63;;;10.70;99.90;;;;;;5012672;28;20034;-75
2021/12/13 12:48:20;;;;;;;11.23;8.53;;;10.50;99.90;;;;;;5011907;28;20049;-76
2021/12/13 12:51:05;;;;;;;11.90;8.27;;;10.70;99.90;;;;;;5012563;28;20033;-76
2021/12/13 12:53:45;;;;;;;10.63;8.17;;;10.60;99.90;;;;;;5012653;28;20105;-75
2021/12/13 12:56:13;;;;;;;9.17;7.90;;;10.60;99.90;;;;;;5011787;28;20022;-75
2021/12/13 12:58:54;;;;;;;10.60;9.20;;;10.50;99.90;;;;;;5011161;28;20037;-75
2021/12/13 13:01:27;;;;;;;10.23;8.03;;;10.50;99.90;;;;;;5009144;28;20104;-75
2021/12/13 13:04:06;;;;;;;13.48;10.68;;;10.50;99.90;;;;;;4997368;28;20037;-75
2021/12/13 13:06:31;;;;;;;9.30;7.90;;;;;;;;;;5012410;28;20477;-75
2021/12/13 13:08:57;;;;;;;11.03;8.07;;;10.50;99.90;;;;;;5011727;28;20092;-75
2021/12/13 13:11:27;;;;;;;10.23;8.87;;;10.60;99.90;;;;;;5011104;28;20433;-74
2021/12/13 13:13:56;;;;;;;11.97;9.27;;;10.50;99.90;;;;;;5011449;28;20049;-75
2021/12/13 13:16:32;;;;;;;12.10;10.50;;;10.50;99.90;;;;;;5011437;28;20112;-75
2021/12/13 13:18:58;;;;;;;12.30;10.17;;;10.10;99.90;;;;;;5008041;28;20053;-75
2021/12/13 13:21:24;;;;;;;11.63;9.07;;;;;;;;;;5010906;28;20056;-75
2021/12/13 13:23:54;;;;;;;10.00;8.63;;;10.50;99.90;;;;;;5011660;28;20030;-75
2021/12/13 13:26:22;;;;;;;10.47;9.00;;;10.80;99.90;;;;;;5011295;28;20029;-76
2021/12/13 13:28:53;;;;;;;8.53;7.60;;;10.60;99.90;;;;;;5011769;28;20030;-75
2021/12/13 13:31:45;;;;;;;10.33;8.57;;;10.40;99.90;;;;;;5011354;28;20547;-75